sensor_id;sensor_type;location;lat;lon;timestamp;temperature;humidity
1355;DHT22;671;48.972;9.276;2024-01-11T00:00:09;-3.70;99.90
1355;DHT22;671;48.972;9.276;2024-01-11T00:02:36;-3.80;99.90
1355;DHT22;671;48.972;9.276;2024-01-11T00:05:02;-3.80;99.90
1355;DHT22;671;48.972;9.276;2024-01-11T00:07:29;-3.80;99.90
1355;DHT22;671;48.972;9.276;2024-01-11T00:09:55;-3.80;99.90
1355;DHT22;671;48.972;9.276;2024-01-11T00:12:22;-3.80;99.90
1355;DHT22;671;48.972;9.276;2024-01-11T00:14:48;-3.80;99.90
1355;DHT22;671;48.972;9.276;2024-01-11T00:17:15;-3.80;99.90
1355;DHT22;671;48.972;9.276;2024-01-11T00:19:42;-3.80;99.90
1355;DHT22;671;48.972;9.276;2024-01-11T00:22:08;-3.90;99.90
1355;DHT22;671;48.972;9.276;2024-01-11T00:24:35;-3.90;99.90
1355;DHT22;671;48.972;9.276;2024-01-11T00:27:01;-4.00;99.90
1355;DHT22;671;48.972;9.276;2024-01-11T00:29:27;-4.00;99.90
1355;DHT22;671;48.972;9.276;2024-01-11T00:31:54;-4.00;99.90
1355;DHT22;671;48.972;9.276;2024-01-11T00:34:21;-4.00;99.90
1355;DHT22;671;48.972;9.276;2024-01-11T00:36:48;-4.00;99.90
1355;DHT22;671;48.972;9.276;2024-01-11T00:39:14;-4.00;99.90
1355;DHT22;671;48.972;9.276;2024-01-11T00:41:41;-4.00;99.90
1355;DHT22;671;48.972;9.276;2024-01-11T00:44:07;-4.00;99.90
1355;DHT22;671;48.972;9.276;2024-01-11T00:46:34;-4.00;99.90
1355;DHT22;671;48.972;9.276;2024-01-11T00:49:01;-4.00;99.90
1355;DHT22;671;48.972;9.276;2024-01-11T00:51:27;-4.10;99.90
1355;DHT22;671;48.972;9.276;2024-01-11T00:53:54;-4.10;99.90
1355;DHT22;671;48.972;9.276;2024-01-11T00:56:21;-4.10;99.90
1355;DHT22;671;48.972;9.276;2024-01-11T00:58:47;-4.10;99.90
1355;DHT22;671;48.972;9.276;2024-01-11T01:01:14;-4.10;99.90
1355;DHT22;671;48.972;9.276;2024-01-11T01:03:40;-4.10;99.90
1355;DHT22;671;48.972;9.276;2024-01-11T01:06:07;-4.10;99.90
1355;DHT22;671;48.972;9.276;2024-01-11T01:08:33;-4.10;99.90
1355;DHT22;671;48.972;9.276;2024-01-11T01:11:00;-4.20;99.90
1355;DHT22;671;48.972;9.276;2024-01-11T01:13:27;-4.30;99.90
1355;DHT22;671;48.972;9.276;2024-01-11T01:15:54;-4.20;99.90
1355;DHT22;671;48.972;9.276;2024-01-11T01:18:21;-4.20;99.90
1355;DHT22;671;48.972;9.276;2024-01-11T01:20:48;-4.20;99.90
1355;DHT22;671;48.972;9.276;2024-01-11T01:23:14;-4.20;99.90
1355;DHT22;671;48.972;9.276;2024-01-11T01:25:41;-4.20;99.90
1355;DHT22;671;48.972;9.276;2024-01-11T01:28:07;-4.20;99.90
1355;DHT22;671;48.972;9.276;2024-01-11T01:30:34;-4.20;99.90
1355;DHT22;671;48.972;9.276;2024-01-11T01:33:00;-4.20;99.90
1355;DHT22;671;48.972;9.276;2024-01-11T01:35:26;-4.20;99.90
1355;DHT22;671;48.972;9.276;2024-01-11T01:37:53;-4.30;99.90
1355;DHT22;671;48.972;9.276;2024-01-11T01:40:19;-4.30;99.90
1355;DHT22;671;48.972;9.276;2024-01-11T01:42:46;-4.30;99.90
1355;DHT22;671;48.972;9.276;2024-01-11T01:45:15;-4.30;99.90
1355;DHT22;671;48.972;9.276;2024-01-11T01:47:42;-4.30;99.90
1355;DHT22;671;48.972;9.276;2024-01-11T01:50:11;-4.30;99.90
1355;DHT22;671;48.972;9.276;2024-01-11T01:52:40;-4.40;99.90
1355;DHT22;671;48.972;9.276;2024-01-11T01:55:10;-4.30;99.90
1355;DHT22;671;48.972;9.276;2024-01-11T01:57:39;-4.30;99.90
1355;DHT22;671;48.972;9.276;2024-01-11T02:00:09;-4.30;99.90
1355;DHT22;671;48.972;9.276;2024-01-11T02:02:38;-4.40;99.90
1355;DHT22;671;48.972;9.276;2024-01-11T02:05:06;-4.40;99.90
1355;DHT22;671;48.972;9.276;2024-01-11T02:07:33;-4.40;99.90
1355;DHT22;671;48.972;9.276;2024-01-11T02:10:00;-4.40;99.90
1355;DHT22;671;48.972;9.276;2024-01-11T02:12:27;-4.40;99.90
1355;DHT22;671;48.972;9.276;2024-01-11T02:14:53;-4.40;99.90
1355;DHT22;671;48.972;9.276;2024-01-11T02:17:20;-4.40;99.90
1355;DHT22;671;48.972;9.276;2024-01-11T02:19:47;-4.40;99.90
1355;DHT22;671;48.972;9.276;2024-01-11T02:22:22;-4.40;99.90
1355;DHT22;671;48.972;9.276;2024-01-11T02:24:50;-4.40;99.90
1355;DHT22;671;48.972;9.276;2024-01-11T02:27:16;-4.40;99.90
1355;DHT22;671;48.972;9.276;2024-01-11T02:29:43;-4.50;99.90
1355;DHT22;671;48.972;9.276;2024-01-11T02:32:10;-4.50;99.90
1355;DHT22;671;48.972;9.276;2024-01-11T02:34:36;-4.50;99.90
1355;DHT22;671;48.972;9.276;2024-01-11T02:37:04;-4.50;99.90
1355;DHT22;671;48.972;9.276;2024-01-11T02:39:31;-4.50;99.90
1355;DHT22;671;48.972;9.276;2024-01-11T02:41:58;-4.50;99.90
1355;DHT22;671;48.972;9.276;2024-01-11T02:44:25;-4.50;99.90
1355;DHT22;671;48.972;9.276;2024-01-11T02:46:51;-4.50;99.90
1355;DHT22;671;48.972;9.276;2024-01-11T02:49:18;-4.60;99.90
1355;DHT22;671;48.972;9.276;2024-01-11T02:51:44;-4.60;99.90
1355;DHT22;671;48.972;9.276;2024-01-11T02:54:11;-4.60;99.90
1355;DHT22;671;48.972;9.276;2024-01-11T02:56:38;-4.60;99.90
1355;DHT22;671;48.972;9.276;2024-01-11T02:59:04;-4.60;99.90
1355;DHT22;671;48.972;9.276;2024-01-11T03:01:30;-4.60;99.90
1355;DHT22;671;48.972;9.276;2024-01-11T03:03:59;-4.70;99.90
1355;DHT22;671;48.972;9.276;2024-01-11T03:06:26;-4.70;99.90
1355;DHT22;671;48.972;9.276;2024-01-11T03:08:52;-4.80;99.90
1355;DHT22;671;48.972;9.276;2024-01-11T03:11:19;-4.70;99.90
1355;DHT22;671;48.972;9.276;2024-01-11T03:13:45;-4.70;99.90
1355;DHT22;671;48.972;9.276;2024-01-11T03:16:11;-4.70;99.90
1355;DHT22;671;48.972;9.276;2024-01-11T03:18:38;-4.70;99.90
1355;DHT22;671;48.972;9.276;2024-01-11T03:21:05;-4.80;99.90
1355;DHT22;671;48.972;9.276;2024-01-11T03:23:31;-4.80;99.90
1355;DHT22;671;48.972;9.276;2024-01-11T03:25:58;-4.80;99.90
1355;DHT22;671;48.972;9.276;2024-01-11T03:28:24;-4.80;99.90
1355;DHT22;671;48.972;9.276;2024-01-11T03:30:49;-4.80;99.90
1355;DHT22;671;48.972;9.276;2024-01-11T03:33:15;-4.80;99.90
1355;DHT22;671;48.972;9.276;2024-01-11T03:35:41;-4.80;99.90
1355;DHT22;671;48.972;9.276;2024-01-11T03:38:10;-4.80;99.90
1355;DHT22;671;48.972;9.276;2024-01-11T03:40:36;-4.80;99.90
1355;DHT22;671;48.972;9.276;2024-01-11T03:43:03;-4.80;99.90
1355;DHT22;671;48.972;9.276;2024-01-11T03:45:29;-4.90;99.90
1355;DHT22;671;48.972;9.276;2024-01-11T03:47:56;-4.90;99.90
1355;DHT22;671;48.972;9.276;2024-01-11T03:50:22;-4.90;99.90
1355;DHT22;671;48.972;9.276;2024-01-11T03:52:49;-4.90;99.90
1355;DHT22;671;48.972;9.276;2024-01-11T03:55:15;-4.90;99.90
1355;DHT22;671;48.972;9.276;2024-01-11T03:57:42;-4.90;99.90
1355;DHT22;671;48.972;9.276;2024-01-11T04:00:10;-5.00;99.90
1355;DHT22;671;48.972;9.276;2024-01-11T04:02:37;-5.00;99.90
1355;DHT22;671;48.972;9.276;2024-01-11T04:05:04;-5.00;99.90
1355;DHT22;671;48.972;9.276;2024-01-11T04:07:31;-5.00;99.90
1355;DHT22;671;48.972;9.276;2024-01-11T04:09:57;-5.00;99.90
1355;DHT22;671;48.972;9.276;2024-01-11T04:12:24;-5.00;99.90
1355;DHT22;671;48.972;9.276;2024-01-11T04:14:50;-5.00;99.90
1355;DHT22;671;48.972;9.276;2024-01-11T04:17:17;-5.00;99.90
1355;DHT22;671;48.972;9.276;2024-01-11T04:19:43;-5.00;99.90
1355;DHT22;671;48.972;9.276;2024-01-11T04:22:10;-5.00;99.90
1355;DHT22;671;48.972;9.276;2024-01-11T04:24:36;-5.00;99.90
1355;DHT22;671;48.972;9.276;2024-01-11T04:27:03;-5.00;99.90
1355;DHT22;671;48.972;9.276;2024-01-11T04:29:29;-5.00;99.90
1355;DHT22;671;48.972;9.276;2024-01-11T04:31:56;-5.00;99.90
1355;DHT22;671;48.972;9.276;2024-01-11T04:34:22;-5.00;99.90
1355;DHT22;671;48.972;9.276;2024-01-11T04:36:49;-5.00;99.90
1355;DHT22;671;48.972;9.276;2024-01-11T04:39:15;-5.00;99.90
1355;DHT22;671;48.972;9.276;2024-01-11T04:41:42;-5.00;99.90
1355;DHT22;671;48.972;9.276;2024-01-11T04:44:08;-5.00;99.90
1355;DHT22;671;48.972;9.276;2024-01-11T04:46:36;-5.00;99.90
1355;DHT22;671;48.972;9.276;2024-01-11T04:49:02;-5.10;99.90
1355;DHT22;671;48.972;9.276;2024-01-11T04:51:29;-5.20;99.90
1355;DHT22;671;48.972;9.276;2024-01-11T04:53:55;-5.10;99.90
1355;DHT22;671;48.972;9.276;2024-01-11T04:56:22;-5.00;99.90
1355;DHT22;671;48.972;9.276;2024-01-11T04:58:48;-5.10;99.90
1355;DHT22;671;48.972;9.276;2024-01-11T05:01:16;-5.10;99.90
1355;DHT22;671;48.972;9.276;2024-01-11T05:03:44;-5.10;99.90
1355;DHT22;671;48.972;9.276;2024-01-11T05:06:17;-5.20;99.90
1355;DHT22;671;48.972;9.276;2024-01-11T05:08:45;-5.20;99.90
1355;DHT22;671;48.972;9.276;2024-01-11T05:11:19;-5.20;99.90
1355;DHT22;671;48.972;9.276;2024-01-11T05:13:46;-5.10;99.90
1355;DHT22;671;48.972;9.276;2024-01-11T05:18:43;-5.20;99.90
1355;DHT22;671;48.972;9.276;2024-01-11T05:21:09;-5.20;99.90
1355;DHT22;671;48.972;9.276;2024-01-11T05:23:36;-5.20;99.90
1355;DHT22;671;48.972;9.276;2024-01-11T05:26:03;-5.20;99.90
1355;DHT22;671;48.972;9.276;2024-01-11T05:28:29;-5.20;99.90
1355;DHT22;671;48.972;9.276;2024-01-11T05:30:56;-5.20;99.90
1355;DHT22;671;48.972;9.276;2024-01-11T05:33:22;-5.20;99.90
1355;DHT22;671;48.972;9.276;2024-01-11T05:35:48;-5.20;99.90
1355;DHT22;671;48.972;9.276;2024-01-11T05:38:15;-5.20;99.90
1355;DHT22;671;48.972;9.276;2024-01-11T05:40:42;-5.20;99.90
1355;DHT22;671;48.972;9.276;2024-01-11T05:43:08;-5.20;99.90
1355;DHT22;671;48.972;9.276;2024-01-11T05:45:35;-5.20;99.90
1355;DHT22;671;48.972;9.276;2024-01-11T05:48:01;-5.20;99.90
1355;DHT22;671;48.972;9.276;2024-01-11T05:50:28;-5.20;99.90
1355;DHT22;671;48.972;9.276;2024-01-11T05:52:54;-5.20;99.90
1355;DHT22;671;48.972;9.276;2024-01-11T05:55:23;-5.20;99.90
1355;DHT22;671;48.972;9.276;2024-01-11T05:57:49;-5.20;99.90
1355;DHT22;671;48.972;9.276;2024-01-11T06:00:16;-5.20;99.90
1355;DHT22;671;48.972;9.276;2024-01-11T06:02:42;-5.20;99.90
1355;DHT22;671;48.972;9.276;2024-01-11T06:05:09;-5.20;99.90
1355;DHT22;671;48.972;9.276;2024-01-11T06:07:36;-5.20;99.90
1355;DHT22;671;48.972;9.276;2024-01-11T06:10:02;-5.20;99.90
1355;DHT22;671;48.972;9.276;2024-01-11T06:12:32;-5.20;99.90
1355;DHT22;671;48.972;9.276;2024-01-11T06:14:58;-5.20;99.90
1355;DHT22;671;48.972;9.276;2024-01-11T06:17:25;-5.30;99.90
1355;DHT22;671;48.972;9.276;2024-01-11T06:19:51;-5.20;99.90
1355;DHT22;671;48.972;9.276;2024-01-11T06:22:18;-5.30;99.90
1355;DHT22;671;48.972;9.276;2024-01-11T06:24:44;-5.20;99.90
1355;DHT22;671;48.972;9.276;2024-01-11T06:27:11;-5.30;99.90
1355;DHT22;671;48.972;9.276;2024-01-11T06:29:38;-5.30;99.90
1355;DHT22;671;48.972;9.276;2024-01-11T06:32:04;-5.30;99.90
1355;DHT22;671;48.972;9.276;2024-01-11T06:34:31;-5.30;99.90
1355;DHT22;671;48.972;9.276;2024-01-11T06:36:57;-5.30;99.90
1355;DHT22;671;48.972;9.276;2024-01-11T06:39:24;-5.30;99.90
1355;DHT22;671;48.972;9.276;2024-01-11T06:41:51;-5.30;99.90
1355;DHT22;671;48.972;9.276;2024-01-11T06:44:17;-5.40;99.90
1355;DHT22;671;48.972;9.276;2024-01-11T06:46:44;-5.40;99.90
1355;DHT22;671;48.972;9.276;2024-01-11T06:49:10;-5.40;99.90
1355;DHT22;671;48.972;9.276;2024-01-11T06:51:37;-5.40;99.90
1355;DHT22;671;48.972;9.276;2024-01-11T06:54:07;-5.40;99.90
1355;DHT22;671;48.972;9.276;2024-01-11T06:56:33;-5.40;99.90
1355;DHT22;671;48.972;9.276;2024-01-11T06:59:00;-5.40;99.90
1355;DHT22;671;48.972;9.276;2024-01-11T07:01:26;-5.40;99.90
1355;DHT22;671;48.972;9.276;2024-01-11T07:03:53;-5.40;99.90
1355;DHT22;671;48.972;9.276;2024-01-11T07:06:19;-5.40;99.90
1355;DHT22;671;48.972;9.276;2024-01-11T07:08:46;-5.40;99.90
1355;DHT22;671;48.972;9.276;2024-01-11T07:11:12;-5.40;99.90
1355;DHT22;671;48.972;9.276;2024-01-11T07:13:39;-5.40;99.90
1355;DHT22;671;48.972;9.276;2024-01-11T07:16:06;-5.40;99.90
1355;DHT22;671;48.972;9.276;2024-01-11T07:18:32;-5.40;99.90
1355;DHT22;671;48.972;9.276;2024-01-11T07:20:59;-5.40;99.90
1355;DHT22;671;48.972;9.276;2024-01-11T07:23:27;-5.40;99.90
1355;DHT22;671;48.972;9.276;2024-01-11T07:25:53;-5.40;99.90
1355;DHT22;671;48.972;9.276;2024-01-11T07:28:20;-5.40;99.90
1355;DHT22;671;48.972;9.276;2024-01-11T07:30:52;-5.40;99.90
1355;DHT22;671;48.972;9.276;2024-01-11T07:33:20;-5.40;99.90
1355;DHT22;671;48.972;9.276;2024-01-11T07:35:47;-5.40;99.90
1355;DHT22;671;48.972;9.276;2024-01-11T07:38:14;-5.40;99.90
1355;DHT22;671;48.972;9.276;2024-01-11T07:40:40;-5.40;99.90
1355;DHT22;671;48.972;9.276;2024-01-11T07:43:07;-5.30;99.90
1355;DHT22;671;48.972;9.276;2024-01-11T07:45:33;-5.30;99.90
1355;DHT22;671;48.972;9.276;2024-01-11T07:48:00;-5.30;99.90
1355;DHT22;671;48.972;9.276;2024-01-11T07:50:27;-5.20;99.90
1355;DHT22;671;48.972;9.276;2024-01-11T07:52:54;-5.20;99.90
1355;DHT22;671;48.972;9.276;2024-01-11T07:55:21;-5.20;99.90
1355;DHT22;671;48.972;9.276;2024-01-11T07:57:50;-5.20;99.90
1355;DHT22;671;48.972;9.276;2024-01-11T08:00:16;-5.10;99.90
1355;DHT22;671;48.972;9.276;2024-01-11T08:02:43;-5.10;99.90
1355;DHT22;671;48.972;9.276;2024-01-11T08:05:09;-5.10;99.90
1355;DHT22;671;48.972;9.276;2024-01-11T08:07:36;-5.10;99.90
1355;DHT22;671;48.972;9.276;2024-01-11T08:10:03;-5.00;99.90
1355;DHT22;671;48.972;9.276;2024-01-11T08:12:30;-5.00;99.90
1355;DHT22;671;48.972;9.276;2024-01-11T08:14:57;-4.90;99.90
1355;DHT22;671;48.972;9.276;2024-01-11T08:17:23;-4.90;99.90
1355;DHT22;671;48.972;9.276;2024-01-11T08:19:50;-4.80;99.90
1355;DHT22;671;48.972;9.276;2024-01-11T08:22:17;-4.80;99.90
1355;DHT22;671;48.972;9.276;2024-01-11T08:24:44;-4.70;99.90
1355;DHT22;671;48.972;9.276;2024-01-11T08:27:10;-4.60;99.90
1355;DHT22;671;48.972;9.276;2024-01-11T08:29:37;-4.60;99.90
1355;DHT22;671;48.972;9.276;2024-01-11T08:32:03;-4.60;99.90
1355;DHT22;671;48.972;9.276;2024-01-11T08:34:31;-4.50;99.90
1355;DHT22;671;48.972;9.276;2024-01-11T08:36:58;-4.50;99.90
1355;DHT22;671;48.972;9.276;2024-01-11T08:39:24;-4.40;99.90
1355;DHT22;671;48.972;9.276;2024-01-11T08:41:51;-4.30;99.90
1355;DHT22;671;48.972;9.276;2024-01-11T08:44:18;-4.30;99.90
1355;DHT22;671;48.972;9.276;2024-01-11T08:46:45;-4.20;99.90
1355;DHT22;671;48.972;9.276;2024-01-11T08:49:11;-4.10;99.90
1355;DHT22;671;48.972;9.276;2024-01-11T08:51:38;-4.10;99.90
1355;DHT22;671;48.972;9.276;2024-01-11T08:54:04;-4.00;99.90
1355;DHT22;671;48.972;9.276;2024-01-11T08:56:35;-4.00;99.90
1355;DHT22;671;48.972;9.276;2024-01-11T08:59:02;-3.90;99.90
1355;DHT22;671;48.972;9.276;2024-01-11T09:01:28;-3.80;99.90
1355;DHT22;671;48.972;9.276;2024-01-11T09:03:56;-3.80;99.90
1355;DHT22;671;48.972;9.276;2024-01-11T09:06:22;-3.70;99.90
1355;DHT22;671;48.972;9.276;2024-01-11T09:08:49;-3.60;99.90
1355;DHT22;671;48.972;9.276;2024-01-11T09:11:16;-3.50;99.90
1355;DHT22;671;48.972;9.276;2024-01-11T09:13:43;-3.40;99.90
1355;DHT22;671;48.972;9.276;2024-01-11T09:16:09;-3.40;99.90
1355;DHT22;671;48.972;9.276;2024-01-11T09:18:40;-3.30;99.90
1355;DHT22;671;48.972;9.276;2024-01-11T09:21:06;-3.20;99.90
1355;DHT22;671;48.972;9.276;2024-01-11T09:23:34;-3.10;99.90
1355;DHT22;671;48.972;9.276;2024-01-11T09:26:01;-3.10;99.90
1355;DHT22;671;48.972;9.276;2024-01-11T09:28:27;-2.90;99.90
1355;DHT22;671;48.972;9.276;2024-01-11T09:30:54;-2.90;99.90
1355;DHT22;671;48.972;9.276;2024-01-11T09:33:26;-2.80;99.90
1355;DHT22;671;48.972;9.276;2024-01-11T09:35:53;-2.70;99.90
1355;DHT22;671;48.972;9.276;2024-01-11T09:38:20;-2.70;99.90
1355;DHT22;671;48.972;9.276;2024-01-11T09:40:49;-2.60;99.90
1355;DHT22;671;48.972;9.276;2024-01-11T09:43:22;-2.60;99.90
1355;DHT22;671;48.972;9.276;2024-01-11T09:45:49;-2.50;99.90
1355;DHT22;671;48.972;9.276;2024-01-11T09:48:18;-2.50;99.90
1355;DHT22;671;48.972;9.276;2024-01-11T09:50:47;-2.40;99.90
1355;DHT22;671;48.972;9.276;2024-01-11T09:53:16;-2.30;99.90
1355;DHT22;671;48.972;9.276;2024-01-11T09:55:44;-2.20;99.90
1355;DHT22;671;48.972;9.276;2024-01-11T09:58:11;-2.20;99.90
1355;DHT22;671;48.972;9.276;2024-01-11T10:00:38;-2.10;99.90
1355;DHT22;671;48.972;9.276;2024-01-11T10:03:04;-2.00;99.90
1355;DHT22;671;48.972;9.276;2024-01-11T10:05:33;-1.90;99.90
1355;DHT22;671;48.972;9.276;2024-01-11T10:08:00;-1.80;99.90
1355;DHT22;671;48.972;9.276;2024-01-11T10:10:27;-1.80;99.90
1355;DHT22;671;48.972;9.276;2024-01-11T10:12:54;-1.70;99.90
1355;DHT22;671;48.972;9.276;2024-01-11T10:15:24;-1.60;99.90
1355;DHT22;671;48.972;9.276;2024-01-11T10:17:51;-1.60;99.90
1355;DHT22;671;48.972;9.276;2024-01-11T10:20:18;-1.50;99.90
1355;DHT22;671;48.972;9.276;2024-01-11T10:22:50;-1.40;99.90
1355;DHT22;671;48.972;9.276;2024-01-11T10:25:18;-1.40;99.90
1355;DHT22;671;48.972;9.276;2024-01-11T10:27:45;-1.30;99.90
1355;DHT22;671;48.972;9.276;2024-01-11T10:30:13;-1.20;99.90
1355;DHT22;671;48.972;9.276;2024-01-11T10:32:46;-1.20;99.90
1355;DHT22;671;48.972;9.276;2024-01-11T10:35:13;-1.10;99.90
1355;DHT22;671;48.972;9.276;2024-01-11T10:37:40;-1.10;99.90
1355;DHT22;671;48.972;9.276;2024-01-11T10:40:08;-1.00;99.90
1355;DHT22;671;48.972;9.276;2024-01-11T10:42:45;-0.90;99.90
1355;DHT22;671;48.972;9.276;2024-01-11T10:45:17;-0.80;99.90
1355;DHT22;671;48.972;9.276;2024-01-11T10:47:55;-0.80;99.90
1355;DHT22;671;48.972;9.276;2024-01-11T10:50:25;-0.70;99.90
1355;DHT22;671;48.972;9.276;2024-01-11T10:55:24;-0.70;99.90
1355;DHT22;671;48.972;9.276;2024-01-11T10:57:52;-0.60;99.90
1355;DHT22;671;48.972;9.276;2024-01-11T11:00:19;-0.50;99.90
1355;DHT22;671;48.972;9.276;2024-01-11T11:02:47;-0.50;99.90
1355;DHT22;671;48.972;9.276;2024-01-11T11:05:15;-0.40;99.90
1355;DHT22;671;48.972;9.276;2024-01-11T11:07:43;-0.30;99.90
1355;DHT22;671;48.972;9.276;2024-01-11T11:10:12;-0.30;99.90
1355;DHT22;671;48.972;9.276;2024-01-11T11:12:40;-0.20;99.90
1355;DHT22;671;48.972;9.276;2024-01-11T11:15:09;-0.10;99.90
1355;DHT22;671;48.972;9.276;2024-01-11T11:17:40;-0.10;99.90
1355;DHT22;671;48.972;9.276;2024-01-11T11:20:07;0.00;99.90
1355;DHT22;671;48.972;9.276;2024-01-11T11:22:40;0.00;99.90
1355;DHT22;671;48.972;9.276;2024-01-11T11:25:10;0.10;99.90
1355;DHT22;671;48.972;9.276;2024-01-11T11:27:37;0.10;99.90
1355;DHT22;671;48.972;9.276;2024-01-11T11:30:04;0.20;99.90
1355;DHT22;671;48.972;9.276;2024-01-11T11:32:38;0.20;99.90
1355;DHT22;671;48.972;9.276;2024-01-11T11:35:08;0.30;99.90
1355;DHT22;671;48.972;9.276;2024-01-11T11:37:39;0.30;99.90
1355;DHT22;671;48.972;9.276;2024-01-11T11:40:09;0.30;99.90
1355;DHT22;671;48.972;9.276;2024-01-11T11:42:39;0.40;99.90
1355;DHT22;671;48.972;9.276;2024-01-11T11:45:09;0.40;99.90
1355;DHT22;671;48.972;9.276;2024-01-11T11:47:38;0.50;99.90
1355;DHT22;671;48.972;9.276;2024-01-11T11:50:09;0.50;99.90
1355;DHT22;671;48.972;9.276;2024-01-11T11:52:40;0.50;99.90
1355;DHT22;671;48.972;9.276;2024-01-11T11:55:08;0.50;99.90
1355;DHT22;671;48.972;9.276;2024-01-11T11:57:35;0.60;99.90
1355;DHT22;671;48.972;9.276;2024-01-11T12:00:03;0.60;99.90
1355;DHT22;671;48.972;9.276;2024-01-11T12:02:33;0.70;99.90
1355;DHT22;671;48.972;9.276;2024-01-11T12:05:02;0.80;99.90
1355;DHT22;671;48.972;9.276;2024-01-11T12:07:30;0.80;99.90
1355;DHT22;671;48.972;9.276;2024-01-11T12:09:57;0.80;99.90
1355;DHT22;671;48.972;9.276;2024-01-11T12:12:24;0.80;99.90
1355;DHT22;671;48.972;9.276;2024-01-11T12:14:50;0.90;99.90
1355;DHT22;671;48.972;9.276;2024-01-11T12:17:17;0.90;99.90
1355;DHT22;671;48.972;9.276;2024-01-11T12:19:43;0.90;99.90
1355;DHT22;671;48.972;9.276;2024-01-11T12:22:10;0.90;99.90
1355;DHT22;671;48.972;9.276;2024-01-11T12:24:37;0.90;99.90
1355;DHT22;671;48.972;9.276;2024-01-11T12:27:04;0.90;99.90
1355;DHT22;671;48.972;9.276;2024-01-11T12:29:30;0.90;99.90
1355;DHT22;671;48.972;9.276;2024-01-11T12:31:57;1.00;99.90
1355;DHT22;671;48.972;9.276;2024-01-11T12:34:28;1.10;99.90
1355;DHT22;671;48.972;9.276;2024-01-11T12:36:55;1.10;99.90
1355;DHT22;671;48.972;9.276;2024-01-11T12:39:24;1.10;99.90
1355;DHT22;671;48.972;9.276;2024-01-11T12:41:52;1.10;99.90
1355;DHT22;671;48.972;9.276;2024-01-11T12:44:20;1.10;99.90
1355;DHT22;671;48.972;9.276;2024-01-11T12:46:49;1.20;99.90
1355;DHT22;671;48.972;9.276;2024-01-11T12:49:16;1.20;99.90
1355;DHT22;671;48.972;9.276;2024-01-11T12:51:42;1.30;99.90
1355;DHT22;671;48.972;9.276;2024-01-11T12:54:13;1.30;99.90
1355;DHT22;671;48.972;9.276;2024-01-11T12:56:45;1.40;99.90
1355;DHT22;671;48.972;9.276;2024-01-11T12:59:12;1.40;99.90
1355;DHT22;671;48.972;9.276;2024-01-11T13:01:39;1.40;99.90
1355;DHT22;671;48.972;9.276;2024-01-11T13:04:08;1.50;99.90
1355;DHT22;671;48.972;9.276;2024-01-11T13:06:35;1.50;99.90
1355;DHT22;671;48.972;9.276;2024-01-11T13:09:02;1.50;99.90
1355;DHT22;671;48.972;9.276;2024-01-11T13:11:29;1.40;99.90
1355;DHT22;671;48.972;9.276;2024-01-11T13:13:56;1.40;99.90
1355;DHT22;671;48.972;9.276;2024-01-11T13:16:25;1.50;99.90
1355;DHT22;671;48.972;9.276;2024-01-11T13:18:52;1.50;99.90
1355;DHT22;671;48.972;9.276;2024-01-11T13:21:18;1.50;99.90
1355;DHT22;671;48.972;9.276;2024-01-11T13:23:45;1.40;99.90
1355;DHT22;671;48.972;9.276;2024-01-11T13:26:11;1.50;99.90
1355;DHT22;671;48.972;9.276;2024-01-11T13:28:38;1.50;99.90
1355;DHT22;671;48.972;9.276;2024-01-11T13:31:04;1.50;99.90
1355;DHT22;671;48.972;9.276;2024-01-11T13:33:30;1.50;99.90
1355;DHT22;671;48.972;9.276;2024-01-11T13:35:57;1.60;99.90
1355;DHT22;671;48.972;9.276;2024-01-11T13:38:24;1.60;99.90
1355;DHT22;671;48.972;9.276;2024-01-11T13:40:50;1.60;99.90
1355;DHT22;671;48.972;9.276;2024-01-11T13:43:17;1.60;99.90
1355;DHT22;671;48.972;9.276;2024-01-11T13:45:43;1.60;99.90
1355;DHT22;671;48.972;9.276;2024-01-11T13:48:10;1.60;99.90
1355;DHT22;671;48.972;9.276;2024-01-11T13:50:37;1.60;99.90
1355;DHT22;671;48.972;9.276;2024-01-11T13:53:03;1.60;99.90
1355;DHT22;671;48.972;9.276;2024-01-11T13:55:31;1.60;99.90
1355;DHT22;671;48.972;9.276;2024-01-11T13:58:03;1.70;99.90
1355;DHT22;671;48.972;9.276;2024-01-11T14:00:30;1.60;99.90
1355;DHT22;671;48.972;9.276;2024-01-11T14:02:57;1.60;99.90
1355;DHT22;671;48.972;9.276;2024-01-11T14:05:23;1.50;99.90
1355;DHT22;671;48.972;9.276;2024-01-11T14:07:50;1.50;99.90
1355;DHT22;671;48.972;9.276;2024-01-11T14:10:20;1.50;99.90
1355;DHT22;671;48.972;9.276;2024-01-11T14:12:47;1.50;99.90
1355;DHT22;671;48.972;9.276;2024-01-11T14:15:13;1.50;99.90
1355;DHT22;671;48.972;9.276;2024-01-11T14:17:40;1.60;99.90
1355;DHT22;671;48.972;9.276;2024-01-11T14:20:07;1.60;99.90
1355;DHT22;671;48.972;9.276;2024-01-11T14:22:41;1.60;99.90
1355;DHT22;671;48.972;9.276;2024-01-11T14:25:08;1.60;99.90
1355;DHT22;671;48.972;9.276;2024-01-11T14:27:37;1.60;99.90
1355;DHT22;671;48.972;9.276;2024-01-11T14:30:05;1.60;99.90
1355;DHT22;671;48.972;9.276;2024-01-11T14:32:32;1.50;99.90
1355;DHT22;671;48.972;9.276;2024-01-11T14:35:00;1.50;99.90
1355;DHT22;671;48.972;9.276;2024-01-11T14:37:31;1.50;99.90
1355;DHT22;671;48.972;9.276;2024-01-11T14:39:58;1.50;99.90
1355;DHT22;671;48.972;9.276;2024-01-11T14:42:25;1.50;99.90
1355;DHT22;671;48.972;9.276;2024-01-11T14:44:52;1.50;99.90
1355;DHT22;671;48.972;9.276;2024-01-11T14:47:19;1.40;99.90
1355;DHT22;671;48.972;9.276;2024-01-11T14:49:46;1.40;99.90
1355;DHT22;671;48.972;9.276;2024-01-11T14:52:13;1.40;99.90
1355;DHT22;671;48.972;9.276;2024-01-11T14:54:40;1.40;99.90
1355;DHT22;671;48.972;9.276;2024-01-11T14:57:08;1.40;99.90
1355;DHT22;671;48.972;9.276;2024-01-11T14:59:34;1.40;99.90
1355;DHT22;671;48.972;9.276;2024-01-11T15:02:01;1.50;99.90
1355;DHT22;671;48.972;9.276;2024-01-11T15:04:27;1.50;99.90
1355;DHT22;671;48.972;9.276;2024-01-11T15:06:54;1.50;99.90
1355;DHT22;671;48.972;9.276;2024-01-11T15:09:20;1.50;99.90
1355;DHT22;671;48.972;9.276;2024-01-11T15:11:47;1.40;99.90
1355;DHT22;671;48.972;9.276;2024-01-11T15:14:13;1.40;99.90
1355;DHT22;671;48.972;9.276;2024-01-11T15:16:40;1.30;99.90
1355;DHT22;671;48.972;9.276;2024-01-11T15:19:06;1.20;99.90
1355;DHT22;671;48.972;9.276;2024-01-11T15:21:33;1.10;99.90
1355;DHT22;671;48.972;9.276;2024-01-11T15:24:00;1.10;99.90
1355;DHT22;671;48.972;9.276;2024-01-11T15:26:27;1.00;99.90
1355;DHT22;671;48.972;9.276;2024-01-11T15:28:53;0.90;99.90
1355;DHT22;671;48.972;9.276;2024-01-11T15:31:20;0.80;99.90
1355;DHT22;671;48.972;9.276;2024-01-11T15:33:47;0.80;99.90
1355;DHT22;671;48.972;9.276;2024-01-11T15:36:13;0.70;99.90
1355;DHT22;671;48.972;9.276;2024-01-11T15:38:40;0.60;99.90
1355;DHT22;671;48.972;9.276;2024-01-11T15:41:07;0.60;99.90
1355;DHT22;671;48.972;9.276;2024-01-11T15:43:33;0.60;99.90
1355;DHT22;671;48.972;9.276;2024-01-11T15:46:00;0.50;99.90
1355;DHT22;671;48.972;9.276;2024-01-11T15:48:26;0.50;99.90
1355;DHT22;671;48.972;9.276;2024-01-11T15:50:53;0.40;99.90
1355;DHT22;671;48.972;9.276;2024-01-11T15:53:23;0.30;99.90
1355;DHT22;671;48.972;9.276;2024-01-11T15:55:49;0.20;99.90
1355;DHT22;671;48.972;9.276;2024-01-11T15:58:17;0.10;99.90
1355;DHT22;671;48.972;9.276;2024-01-11T16:00:43;0.00;99.90
1355;DHT22;671;48.972;9.276;2024-01-11T16:03:10;-0.10;99.90
1355;DHT22;671;48.972;9.276;2024-01-11T16:05:36;-0.20;99.90
1355;DHT22;671;48.972;9.276;2024-01-11T16:08:03;-0.30;99.90
1355;DHT22;671;48.972;9.276;2024-01-11T16:10:30;-0.40;99.90
1355;DHT22;671;48.972;9.276;2024-01-11T16:12:56;-0.40;99.90
1355;DHT22;671;48.972;9.276;2024-01-11T16:15:23;-0.50;99.90
1355;DHT22;671;48.972;9.276;2024-01-11T16:17:49;-0.50;99.90
1355;DHT22;671;48.972;9.276;2024-01-11T16:20:16;-0.60;99.90
1355;DHT22;671;48.972;9.276;2024-01-11T16:22:43;-0.60;99.90
1355;DHT22;671;48.972;9.276;2024-01-11T16:25:10;-0.70;99.90